createdAt,value
2023-02-07T06:18:48.354Z,3.51
2023-02-07T06:28:49.497Z,3.70
2023-02-07T06:38:48.530Z,2.83
2023-02-07T06:48:48.510Z,5.11
2023-02-07T06:58:48.440Z,2.95
2023-02-07T07:08:48.469Z,0.71
2023-02-07T07:18:48.388Z,0.00
2023-02-07T07:28:48.564Z,0.00
2023-02-07T07:38:49.242Z,0.00
2023-02-07T07:48:48.509Z,0.00
2023-02-07T07:58:48.590Z,0.17
2023-02-07T08:08:48.500Z,2.55
2023-02-07T08:18:48.598Z,5.05
2023-02-07T08:28:48.721Z,4.69
2023-02-07T08:38:48.919Z,5.72
2023-02-07T08:48:48.974Z,6.63
2023-02-07T08:58:48.989Z,8.11
2023-02-07T09:08:48.899Z,5.96
2023-02-07T09:18:50.322Z,5.52
2023-02-07T09:28:48.928Z,5.88
2023-02-07T09:38:48.945Z,4.05
2023-02-07T09:48:49.046Z,4.39
2023-02-07T09:58:48.926Z,3.66
2023-02-07T10:08:49.160Z,5.53
2023-02-07T10:18:48.988Z,5.80
2023-02-07T10:28:48.921Z,6.67
2023-02-07T10:38:56.739Z,5.26
2023-02-07T10:48:48.888Z,5.20
2023-02-07T10:58:48.810Z,4.53
2023-02-07T11:08:48.891Z,4.04
2023-02-07T11:18:48.850Z,5.68
2023-02-07T11:28:48.975Z,8.60
2023-02-07T11:38:49.808Z,8.86
2023-02-07T11:48:48.858Z,9.70
2023-02-07T11:58:49.141Z,8.32
2023-02-07T12:08:49.114Z,9.00
2023-02-07T12:18:49.005Z,5.91
2023-02-07T12:28:49.045Z,4.35
2023-02-07T12:38:48.953Z,6.26
2023-02-07T12:48:49.092Z,6.15
2023-02-07T12:58:48.937Z,8.01
2023-02-07T13:08:48.919Z,8.65
2023-02-07T13:18:49.050Z,11.15
2023-02-07T13:28:49.992Z,9.88
2023-02-07T13:38:49.010Z,11.29
2023-02-07T13:48:49.023Z,8.77
2023-02-07T13:58:48.978Z,7.94
2023-02-07T14:08:49.062Z,9.58
2023-02-07T14:18:49.004Z,9.50
2023-02-07T14:28:48.989Z,9.42
2023-02-07T14:38:49.077Z,8.54
2023-02-07T14:48:48.951Z,10.48
2023-02-07T14:58:49.098Z,10.20
2023-02-07T15:08:49.201Z,11.09
2023-02-07T15:18:49.037Z,10.07
2023-02-07T15:28:49.232Z,8.12
2023-02-07T15:38:49.101Z,8.65
2023-02-07T15:48:49.110Z,7.98
2023-02-07T15:58:49.231Z,3.95
2023-02-07T16:08:49.152Z,0.44
2023-02-07T16:18:49.132Z,0.00
2023-02-07T16:28:49.140Z,0.08
2023-02-07T16:38:49.195Z,0.00
2023-02-07T16:48:49.204Z,0.00
2023-02-07T16:58:49.158Z,0.00
2023-02-07T17:08:49.317Z,3.27
2023-02-07T17:18:49.190Z,2.32
2023-02-07T17:28:49.176Z,1.44
2023-02-07T17:38:49.218Z,0.13
2023-02-07T17:48:49.224Z,0.00
2023-02-07T17:58:49.290Z,0.00
2023-02-07T18:08:49.231Z,0.00
2023-02-07T18:18:49.176Z,1.56
2023-02-07T18:28:49.169Z,0.00
2023-02-07T18:38:49.313Z,0.00
2023-02-07T18:48:49.251Z,0.08
2023-02-07T18:58:49.363Z,3.09
2023-02-07T19:08:49.668Z,6.65
2023-02-07T19:18:49.696Z,5.97
